CheckWX is a tool to help pilots better visualize weather data.  It is not intended as a substitute for an official pre-flight weather briefing.

21:36:58 UTC

CYQQ METAR
Comox Airport
Comox, Canada
Current

37 mins ago

CYQQ 232100Z CCA 15015KT 20SM FEW008 FEW030 FEW079 BKN230 06/04 A3005 RMK SF1SC1AC1CI6 SLP178
Observed
Feb-23 @ 21:00 UTC
Wind
  • 150° at 15 KTS
Visibility
20 SM
Flight Rules
VFR
Cloud Levels
  • Few at 800' AGL
  • Few at 3,000' AGL
  • Few at 7,900' AGL
  • Broken at 23,000' AGL
Temperature
C / 43°F
Dewpoint
C / 39°F
Humidity
87%
Altimeter
30.05" Hg
Pressure
1017.8 hPa
Previous

2 hours ago

CYQQ 232000Z 14015G20KT 20SM FEW012 BKN015 BKN035 BKN077 06/04 A3005 RMK SC1SC4SC2AC1 SLP179
Observed
Feb-23 @ 20:00 UTC
Wind
  • 140° at 15 KTS
  • Gusting to 20 KTS
Visibility
20 SM
Flight Rules
MVFR
Cloud Levels
  • Few at 1,200' AGL
  • Broken at 1,500' AGL
  • Broken at 3,500' AGL
  • Broken at 7,700' AGL
Temperature
C / 43°F
Dewpoint
C / 39°F
Humidity
87%
Altimeter
30.05" Hg
Pressure
1017.9 hPa
Previous

2 hours ago

CYQQ 231923Z 14016KT 20SM FEW008 FEW014 BKN033 BKN077 06/05 A3005 RMK SF1SC2SC3AC2 SLP178
Observed
Feb-23 @ 19:23 UTC
Wind
  • 140° at 16 KTS
Visibility
20 SM
Flight Rules
VFR
Cloud Levels
  • Few at 800' AGL
  • Few at 1,400' AGL
  • Broken at 3,300' AGL
  • Broken at 7,700' AGL
Temperature
C / 43°F
Dewpoint
C / 41°F
Humidity
93%
Altimeter
30.05" Hg
Pressure
1017.8 hPa